This is the latest recevied weather packets stored in our database for station/object BadBuchau. If no packets are shown the sender has not sent any weather packets the latest 10 day(s).
| Time | Temp. | Humidity | Pressure | Rain* | Wind** | Luminosity | Snow |
|---|---|---|---|---|---|---|---|
| 1788597131 | 16.67° C | 89% | 1019.9 hPa | 0.51 mm | - | - | - |
| 1788595330 | 16.67° C | 88% | 1019.8 hPa | 0.51 mm | - | - | - |
| 1788593530 | 16.67° C | 87% | 1019.3 hPa | 0.25 mm | - | - | - |
| 1788591730 | 16.67° C | 91% | 1019 hPa | 0.25 mm | - | - | - |
| 1788589930 | 16.67° C | 90% | 1019 hPa | 0.25 mm | - | - | - |
| 1788588130 | 16.67° C | 89% | 1018.5 hPa | 0.25 mm | - | - | - |
| 1788586329 | 17.22° C | 85% | 1018.5 hPa | 0.25 mm | - | - | - |
| 1788584531 | 18.33° C | 80% | 1017.5 hPa | 0 mm | - | - | - |
| 1788582730 | 18.33° C | 76% | 1017.5 hPa | 0 mm | - | - | - |
| 1788580929 | 19.44° C | 73% | 1017.2 hPa | 0 mm | - | - | - |
| 1788579129 | 18.89° C | 74% | 1016.8 hPa | 0 mm | - | - | - |
| 1788577329 | 19.44° C | 72% | 1016.6 hPa | 0 mm | - | - | - |
| 1788575529 | 19.44° C | 72% | 1016 hPa | 0 mm | - | - | - |
| 1788573729 | 19.44° C | 70% | 1015.8 hPa | 0 mm | - | - | - |
| 1788571929 | 20° C | 69% | 1015.6 hPa | 0 mm | - | - | - |
| 1788570129 | 20° C | 67% | 1015.3 hPa | 0 mm | - | - | - |
| 1788568331 | 20.56° C | 65% | 1015.3 hPa | 0 mm | - | - | - |
| 1788566531 | 21.67° C | 63% | 1015.1 hPa | 0 mm | - | - | - |
| 1788564731 | 22.22° C | 61% | 1015.1 hPa | 0 mm | - | - | - |
| 1788562931 | 23.33° C | 56% | 1014.8 hPa | 0 mm | - | - | - |
| 1788561131 | 23.89° C | 56% | 1014.5 hPa | 0 mm | - | - | - |
| 1788559331 | 23.89° C | 55% | 1014.6 hPa | 0 mm | - | - | - |
| 1788557531 | 24.44° C | 54% | 1014.5 hPa | 0 mm | - | - | - |
| 1788555731 | 24.44° C | 54% | 1014.5 hPa | 0 mm | - | - | - |
| 1788553931 | 24.44° C | 54% | 1014.6 hPa | 0 mm | - | - | - |
* Rain since midnight (hover to see other rain measurements)
** Current wind speed in m/s (hover to see current wind gust speed)